Airfield :
LOGIN :

Register | Disclaimer

   EN    FR    IT 

 










Legend :    VFR   Marginal VFR   IFR   Intensive IFR   Very Intensive IFR
Visi :
Ceiling :
>= 8 km
>= 3000ft
5 to 8 km
1000 to 3000 ft
1500m to 5 km
500 to 1000 ft
800 to 1500m
200 to 500 ft
< 800m
< 200 ft
Symbols :   Thunderstorms  Fog  Heavy snow  Heavy precipitations  Wind > 20 kt
SIGMETs :     Misc.  Thunderstorms  Icing  Turbulence  Mountain Waves  Volcanic Ashes






- Airport Elevation : 124 ft
- IATA code : AVN


LFMV - Avignon Caumont

CURRENT METAR :
  • 130800Z AUTO 33011KT CAVOK 22/12 Q1013 NOSIG

EXPIRED METARs :
  • 130730Z AUTO 34012KT CAVOK 21/12 Q1013 NOSIG
  • 130700Z AUTO 35010KT 310V030 CAVOK 20/12 Q1014 NOSIG
  • 130630Z AUTO 34012KT 310V020 CAVOK 20/12 Q1013 NOSIG
  • 130600Z AUTO 34011KT CAVOK 19/12 Q1013 NOSIG
  • 130530Z AUTO 33011KT CAVOK 19/12 Q1013 NOSIG
  • 130500Z AUTO 33010KT CAVOK 18/12 Q1013 NOSIG
  • 130430Z AUTO 33012KT CAVOK 17/12 Q1013 NOSIG
  • 130400Z AUTO 34007KT 300V020 CAVOK 17/12 Q1013 NOSIG
  • 130330Z AUTO 33011KT CAVOK 18/12 Q1013 NOSIG

TAF TAF LFMV
Valid from the 13 at 03:00 until the 14 at 03:00 UTC


130200Z 1303/1403 34012KT CAVOK
BECMG 1320/1321 VRB03KT
ATIS : +33 4 90 84 32 84



MET'MAP, your aeronautical weather chart ! - Copyright ORBIFLY December 2007 - Disclaimer

ORBIFLY MET'MAP TEAM :

Programming & Development : Alexandra Zaïnal
Original concept : Baudouin d'Aumeries
Technical & hardware support : Manuel Goepfert
Assistance : Marc-Olivier Méhu




SOURCES & CREDITS :

   NOAA